sensor_id;sensor_type;location;lat;lon;timestamp;pressure;altitude;pressure_sealevel;temperature;humidity
38880;BME280;25887;30.194;-97.880;2023-02-18T00:01:46;99964.53;;;13.78;29.10
38880;BME280;25887;30.194;-97.880;2023-02-18T00:04:12;99963.63;;;13.76;29.30
38880;BME280;25887;30.194;-97.880;2023-02-18T00:06:38;99967.06;;;13.74;28.84
38880;BME280;25887;30.194;-97.880;2023-02-18T00:09:04;99966.16;;;13.70;28.89
38880;BME280;25887;30.194;-97.880;2023-02-18T00:11:31;99966.09;;;13.67;29.26
38880;BME280;25887;30.194;-97.880;2023-02-18T00:13:59;99959.19;;;13.63;29.28
38880;BME280;25887;30.194;-97.880;2023-02-18T00:17:05;99958.25;;;13.59;29.43
38880;BME280;25887;30.194;-97.880;2023-02-18T00:20:00;99970.28;;;13.56;29.25
38880;BME280;25887;30.194;-97.880;2023-02-18T00:22:25;99966.78;;;13.54;29.40
38880;BME280;25887;30.194;-97.880;2023-02-18T00:24:51;99965.03;;;13.50;29.05
38880;BME280;25887;30.194;-97.880;2023-02-18T00:27:17;99966.72;;;13.48;29.43
38880;BME280;25887;30.194;-97.880;2023-02-18T00:29:43;99959.78;;;13.44;29.15
38880;BME280;25887;30.194;-97.880;2023-02-18T00:32:09;99959.75;;;13.42;29.14
38880;BME280;25887;30.194;-97.880;2023-02-18T00:34:57;99963.13;;;13.38;29.45
38880;BME280;25887;30.194;-97.880;2023-02-18T00:37:23;99963.94;;;13.34;29.38
38880;BME280;25887;30.194;-97.880;2023-02-18T00:40:24;99958.66;;;13.26;29.58
38880;BME280;25887;30.194;-97.880;2023-02-18T00:42:50;99960.25;;;13.18;29.62
38880;BME280;25887;30.194;-97.880;2023-02-18T00:45:16;99954.97;;;13.12;29.43
38880;BME280;25887;30.194;-97.880;2023-02-18T00:47:42;99960.91;;;13.06;29.74
38880;BME280;25887;30.194;-97.880;2023-02-18T00:50:08;99960.00;;;13.03;29.88
38880;BME280;25887;30.194;-97.880;2023-02-18T00:52:35;99976.25;;;12.99;29.85
38880;BME280;25887;30.194;-97.880;2023-02-18T00:55:00;99976.22;;;12.96;29.61
38880;BME280;25887;30.194;-97.880;2023-02-18T00:57:26;99974.41;;;12.90;29.84
38880;BME280;25887;30.194;-97.880;2023-02-18T00:59:52;99979.53;;;12.87;29.46
38880;BME280;25887;30.194;-97.880;2023-02-18T01:02:18;99970.03;;;12.85;29.61
38880;BME280;25887;30.194;-97.880;2023-02-18T01:04:43;99969.09;;;12.81;29.92
38880;BME280;25887;30.194;-97.880;2023-02-18T01:07:17;99963.06;;;12.77;29.71
38880;BME280;25887;30.194;-97.880;2023-02-18T01:09:43;99972.44;;;12.74;29.64
38880;BME280;25887;30.194;-97.880;2023-02-18T01:12:08;99977.53;;;12.69;29.88
38880;BME280;25887;30.194;-97.880;2023-02-18T01:14:38;99981.69;;;12.63;29.73
38880;BME280;25887;30.194;-97.880;2023-02-18T01:17:03;99988.44;;;12.54;29.79
38880;BME280;25887;30.194;-97.880;2023-02-18T01:19:29;99986.59;;;12.49;30.16
38880;BME280;25887;30.194;-97.880;2023-02-18T01:21:55;99985.63;;;12.42;29.95
38880;BME280;25887;30.194;-97.880;2023-02-18T01:24:21;99994.94;;;12.36;30.03
38880;BME280;25887;30.194;-97.880;2023-02-18T01:26:47;99997.44;;;12.30;30.05
38880;BME280;25887;30.194;-97.880;2023-02-18T01:29:13;100002.47;;;12.23;30.33
38880;BME280;25887;30.194;-97.880;2023-02-18T01:31:38;100003.19;;;12.16;30.22
38880;BME280;25887;30.194;-97.880;2023-02-18T01:34:09;100000.44;;;12.09;30.03
38880;BME280;25887;30.194;-97.880;2023-02-18T01:36:34;100002.03;;;12.02;30.12
38880;BME280;25887;30.194;-97.880;2023-02-18T01:39:00;100007.91;;;11.95;30.15
38880;BME280;25887;30.194;-97.880;2023-02-18T01:41:26;100014.63;;;11.88;30.48
38880;BME280;25887;30.194;-97.880;2023-02-18T01:46:36;100031.50;;;11.76;30.45
38880;BME280;25887;30.194;-97.880;2023-02-18T01:49:38;100033.03;;;11.67;30.46
38880;BME280;25887;30.194;-97.880;2023-02-18T01:52:06;100034.53;;;11.59;30.49
38880;BME280;25887;30.194;-97.880;2023-02-18T01:54:36;100029.25;;;11.52;30.64
38880;BME280;25887;30.194;-97.880;2023-02-18T01:57:14;100026.50;;;11.44;30.81
38880;BME280;25887;30.194;-97.880;2023-02-18T01:59:46;100025.41;;;11.34;30.80
38880;BME280;25887;30.194;-97.880;2023-02-18T02:02:17;100037.31;;;11.29;30.79
38880;BME280;25887;30.194;-97.880;2023-02-18T02:04:44;100032.88;;;11.24;30.71
38880;BME280;25887;30.194;-97.880;2023-02-18T02:07:10;100046.50;;;11.20;30.96
38880;BME280;25887;30.194;-97.880;2023-02-18T02:09:36;100049.75;;;11.12;30.91
38880;BME280;25887;30.194;-97.880;2023-02-18T02:14:40;100043.44;;;11.00;31.02
38880;BME280;25887;30.194;-97.880;2023-02-18T02:17:35;100046.72;;;10.94;30.93
38880;BME280;25887;30.194;-97.880;2023-02-18T02:33:20;100064.53;;;10.55;31.64
38880;BME280;25887;30.194;-97.880;2023-02-18T02:38:19;100077.19;;;10.47;31.70
38880;BME280;25887;30.194;-97.880;2023-02-18T02:40:54;100075.38;;;10.43;31.80
38880;BME280;25887;30.194;-97.880;2023-02-18T02:49:49;100078.31;;;10.27;31.72
38880;BME280;25887;30.194;-97.880;2023-02-18T02:54:27;100079.72;;;10.17;31.66
38880;BME280;25887;30.194;-97.880;2023-02-18T02:57:06;100078.81;;;10.15;31.60
38880;BME280;25887;30.194;-97.880;2023-02-18T02:59:35;100079.63;;;10.13;31.75
38880;BME280;25887;30.194;-97.880;2023-02-18T03:02:15;100074.38;;;10.10;32.30
38880;BME280;25887;30.194;-97.880;2023-02-18T03:23:21;100084.59;;;9.80;32.81
38880;BME280;25887;30.194;-97.880;2023-02-18T03:26:27;100096.41;;;9.73;32.58
38880;BME280;25887;30.194;-97.880;2023-02-18T03:28:55;100096.25;;;9.68;32.41
38880;BME280;25887;30.194;-97.880;2023-02-18T03:31:24;100097.78;;;9.63;32.48
38880;BME280;25887;30.194;-97.880;2023-02-18T03:33:53;100092.41;;;9.56;32.95
38880;BME280;25887;30.194;-97.880;2023-02-18T03:36:21;100108.53;;;9.52;32.56
38880;BME280;25887;30.194;-97.880;2023-02-18T03:38:50;100106.69;;;9.47;32.97
38880;BME280;25887;30.194;-97.880;2023-02-18T03:41:18;100110.00;;;9.43;32.47
38880;BME280;25887;30.194;-97.880;2023-02-18T03:44:04;100112.44;;;9.40;32.80
38880;BME280;25887;30.194;-97.880;2023-02-18T03:46:30;100116.69;;;9.40;33.02
38880;BME280;25887;30.194;-97.880;2023-02-18T03:48:56;100102.09;;;9.37;33.05
38880;BME280;25887;30.194;-97.880;2023-02-18T03:51:22;100110.63;;;9.36;33.05
38880;BME280;25887;30.194;-97.880;2023-02-18T03:53:48;100112.31;;;9.36;33.06
38880;BME280;25887;30.194;-97.880;2023-02-18T03:56:18;100103.66;;;9.34;33.17
38880;BME280;25887;30.194;-97.880;2023-02-18T03:58:44;100108.66;;;9.29;32.89
38880;BME280;25887;30.194;-97.880;2023-02-18T04:01:23;100116.16;;;9.23;33.09
38880;BME280;25887;30.194;-97.880;2023-02-18T04:03:49;100116.06;;;9.20;33.09
38880;BME280;25887;30.194;-97.880;2023-02-18T04:06:14;100132.97;;;9.15;32.79
38880;BME280;25887;30.194;-97.880;2023-02-18T04:08:58;100124.38;;;9.13;32.80
38880;BME280;25887;30.194;-97.880;2023-02-18T04:11:24;100137.88;;;9.09;32.70
38880;BME280;25887;30.194;-97.880;2023-02-18T04:13:50;100136.94;;;9.05;32.91
38880;BME280;25887;30.194;-97.880;2023-02-18T04:16:16;100130.81;;;9.02;32.69
38880;BME280;25887;30.194;-97.880;2023-02-18T04:19:00;100128.84;;;8.94;33.43
38880;BME280;25887;30.194;-97.880;2023-02-18T04:21:26;100127.88;;;8.91;33.27
38880;BME280;25887;30.194;-97.880;2023-02-18T04:23:52;100127.84;;;8.89;33.48
38880;BME280;25887;30.194;-97.880;2023-02-18T04:26:18;100115.72;;;8.85;33.10
38880;BME280;25887;30.194;-97.880;2023-02-18T04:28:49;100118.06;;;8.79;33.65
38880;BME280;25887;30.194;-97.880;2023-02-18T04:31:15;100122.19;;;8.74;33.24
38880;BME280;25887;30.194;-97.880;2023-02-18T04:33:41;100119.50;;;8.71;33.18
38880;BME280;25887;30.194;-97.880;2023-02-18T04:36:07;100127.84;;;8.65;33.79
38880;BME280;25887;30.194;-97.880;2023-02-18T04:38:33;100131.06;;;8.60;33.41
38880;BME280;25887;30.194;-97.880;2023-02-18T04:40:58;100127.53;;;8.56;33.47
38880;BME280;25887;30.194;-97.880;2023-02-18T04:43:24;100122.13;;;8.49;33.59
38880;BME280;25887;30.194;-97.880;2023-02-18T04:45:50;100126.16;;;8.42;33.68
38880;BME280;25887;30.194;-97.880;2023-02-18T04:48:16;100126.78;;;8.36;33.88
38880;BME280;25887;30.194;-97.880;2023-02-18T04:50:43;100128.25;;;8.31;33.73
38880;BME280;25887;30.194;-97.880;2023-02-18T04:53:08;100122.94;;;8.25;33.71
38880;BME280;25887;30.194;-97.880;2023-02-18T04:55:34;100122.66;;;8.18;34.02
38880;BME280;25887;30.194;-97.880;2023-02-18T04:58:00;100128.41;;;8.12;33.32
38880;BME280;25887;30.194;-97.880;2023-02-18T05:00:26;100123.06;;;8.06;33.70
38880;BME280;25887;30.194;-97.880;2023-02-18T05:02:53;100120.19;;;7.98;33.86
38880;BME280;25887;30.194;-97.880;2023-02-18T05:05:39;100120.72;;;7.90;33.57
38880;BME280;25887;30.194;-97.880;2023-02-18T05:08:06;100119.66;;;7.85;34.04
38880;BME280;25887;30.194;-97.880;2023-02-18T05:10:33;100119.31;;;7.75;34.13
38880;BME280;25887;30.194;-97.880;2023-02-18T05:13:17;100114.81;;;7.70;34.22
38880;BME280;25887;30.194;-97.880;2023-02-18T05:16:01;100118.84;;;7.63;34.44
38880;BME280;25887;30.194;-97.880;2023-02-18T05:18:28;100122.09;;;7.59;34.25
38880;BME280;25887;30.194;-97.880;2023-02-18T05:20:54;100115.13;;;7.55;34.31
38880;BME280;25887;30.194;-97.880;2023-02-18T05:23:20;100116.66;;;7.51;33.97
38880;BME280;25887;30.194;-97.880;2023-02-18T05:25:55;100122.47;;;7.47;33.82
38880;BME280;25887;30.194;-97.880;2023-02-18T05:28:20;100121.41;;;7.42;34.04
38880;BME280;25887;30.194;-97.880;2023-02-18T05:30:46;100114.34;;;7.37;34.05
38880;BME280;25887;30.194;-97.880;2023-02-18T05:33:33;100126.00;;;7.30;34.37
38880;BME280;25887;30.194;-97.880;2023-02-18T05:35:59;100123.34;;;7.27;34.43
38880;BME280;25887;30.194;-97.880;2023-02-18T05:38:25;100127.44;;;7.23;34.53
38880;BME280;25887;30.194;-97.880;2023-02-18T05:40:58;100119.59;;;7.19;34.39
38880;BME280;25887;30.194;-97.880;2023-02-18T05:43:24;100122.91;;;7.16;34.52
38880;BME280;25887;30.194;-97.880;2023-02-18T05:45:50;100123.69;;;7.15;34.64
38880;BME280;25887;30.194;-97.880;2023-02-18T05:48:15;100125.31;;;7.13;34.65
38880;BME280;25887;30.194;-97.880;2023-02-18T05:50:41;100121.84;;;7.11;34.71
38880;BME280;25887;30.194;-97.880;2023-02-18T05:53:07;100117.59;;;7.12;34.38
38880;BME280;25887;30.194;-97.880;2023-02-18T05:55:33;100112.38;;;7.09;34.69
38880;BME280;25887;30.194;-97.880;2023-02-18T05:58:03;100111.34;;;7.05;34.64
38880;BME280;25887;30.194;-97.880;2023-02-18T06:00:29;100104.38;;;7.01;34.71
38880;BME280;25887;30.194;-97.880;2023-02-18T06:02:56;100100.88;;;6.99;34.66
38880;BME280;25887;30.194;-97.880;2023-02-18T06:05:22;100099.00;;;6.95;34.65
38880;BME280;25887;30.194;-97.880;2023-02-18T06:08:20;100087.78;;;6.91;34.67
38880;BME280;25887;30.194;-97.880;2023-02-18T06:10:45;100087.72;;;6.90;34.75
38880;BME280;25887;30.194;-97.880;2023-02-18T06:13:11;100082.50;;;6.87;35.08
38880;BME280;25887;30.194;-97.880;2023-02-18T06:15:37;100090.97;;;6.86;34.89
38880;BME280;25887;30.194;-97.880;2023-02-18T06:21:06;100078.84;;;6.82;34.96
38880;BME280;25887;30.194;-97.880;2023-02-18T06:23:35;100077.06;;;6.79;35.16
38880;BME280;25887;30.194;-97.880;2023-02-18T06:26:02;100076.91;;;6.76;35.14
38880;BME280;25887;30.194;-97.880;2023-02-18T06:28:45;100086.13;;;6.73;34.91
38880;BME280;25887;30.194;-97.880;2023-02-18T06:31:11;100086.88;;;6.70;35.23
38880;BME280;25887;30.194;-97.880;2023-02-18T06:33:36;100097.97;;;6.70;35.12
38880;BME280;25887;30.194;-97.880;2023-02-18T06:36:03;100090.31;;;6.70;35.28
38880;BME280;25887;30.194;-97.880;2023-02-18T06:38:33;100086.19;;;6.74;35.13
38880;BME280;25887;30.194;-97.880;2023-02-18T06:40:59;100085.38;;;6.75;35.26
38880;BME280;25887;30.194;-97.880;2023-02-18T06:43:26;100078.69;;;6.77;35.26
38880;BME280;25887;30.194;-97.880;2023-02-18T06:45:52;100079.63;;;6.79;35.41
38880;BME280;25887;30.194;-97.880;2023-02-18T06:48:18;100077.19;;;6.82;35.35
38880;BME280;25887;30.194;-97.880;2023-02-18T06:50:44;100076.50;;;6.86;35.38
38880;BME280;25887;30.194;-97.880;2023-02-18T06:53:10;100079.13;;;6.88;35.31
38880;BME280;25887;30.194;-97.880;2023-02-18T06:55:38;100077.50;;;6.90;35.21
38880;BME280;25887;30.194;-97.880;2023-02-18T06:58:03;100055.31;;;6.89;35.06
38880;BME280;25887;30.194;-97.880;2023-02-18T07:00:29;100045.00;;;6.86;35.29
38880;BME280;25887;30.194;-97.880;2023-02-18T07:03:14;100047.28;;;6.80;35.42
38880;BME280;25887;30.194;-97.880;2023-02-18T07:05:40;100047.94;;;6.76;35.14
38880;BME280;25887;30.194;-97.880;2023-02-18T07:08:06;100059.78;;;6.74;35.05
38880;BME280;25887;30.194;-97.880;2023-02-18T07:10:37;100066.47;;;6.70;35.31
38880;BME280;25887;30.194;-97.880;2023-02-18T07:13:03;100062.88;;;6.66;35.37
38880;BME280;25887;30.194;-97.880;2023-02-18T07:15:29;100069.69;;;6.66;35.46
38880;BME280;25887;30.194;-97.880;2023-02-18T07:18:13;100070.44;;;6.63;35.41
38880;BME280;25887;30.194;-97.880;2023-02-18T07:20:39;100059.94;;;6.57;35.55
38880;BME280;25887;30.194;-97.880;2023-02-18T07:23:04;100064.78;;;6.51;35.34
38880;BME280;25887;30.194;-97.880;2023-02-18T07:25:30;100063.63;;;6.45;35.37
38880;BME280;25887;30.194;-97.880;2023-02-18T07:27:58;100071.13;;;6.40;35.64
38880;BME280;25887;30.194;-97.880;2023-02-18T07:30:23;100055.47;;;6.32;35.43
38880;BME280;25887;30.194;-97.880;2023-02-18T07:33:09;100061.09;;;6.25;35.74
38880;BME280;25887;30.194;-97.880;2023-02-18T07:35:35;100059.09;;;6.18;35.53
38880;BME280;25887;30.194;-97.880;2023-02-18T07:38:01;100054.56;;;6.12;35.65
38880;BME280;25887;30.194;-97.880;2023-02-18T07:43:12;100053.25;;;6.01;35.96
38880;BME280;25887;30.194;-97.880;2023-02-18T07:45:38;100064.09;;;5.97;35.64
38880;BME280;25887;30.194;-97.880;2023-02-18T07:48:04;100058.00;;;5.94;35.92
38880;BME280;25887;30.194;-97.880;2023-02-18T07:50:30;100048.50;;;5.91;35.87
38880;BME280;25887;30.194;-97.880;2023-02-18T07:52:59;100066.25;;;5.90;35.76
38880;BME280;25887;30.194;-97.880;2023-02-18T07:55:26;100062.03;;;5.90;35.72
38880;BME280;25887;30.194;-97.880;2023-02-18T07:58:17;100063.03;;;5.92;35.60
38880;BME280;25887;30.194;-97.880;2023-02-18T08:00:43;100072.44;;;5.93;36.09
38880;BME280;25887;30.194;-97.880;2023-02-18T08:03:09;100067.44;;;5.96;35.75
38880;BME280;25887;30.194;-97.880;2023-02-18T08:05:35;100064.09;;;5.97;36.14
38880;BME280;25887;30.194;-97.880;2023-02-18T08:08:01;100064.97;;;5.98;36.17
38880;BME280;25887;30.194;-97.880;2023-02-18T08:10:26;100068.38;;;5.98;35.81
38880;BME280;25887;30.194;-97.880;2023-02-18T08:12:52;100062.34;;;5.96;36.24
38880;BME280;25887;30.194;-97.880;2023-02-18T08:15:18;100058.00;;;5.94;36.21
38880;BME280;25887;30.194;-97.880;2023-02-18T08:17:44;100044.97;;;5.89;36.08
38880;BME280;25887;30.194;-97.880;2023-02-18T08:20:10;100043.94;;;5.84;35.75
38880;BME280;25887;30.194;-97.880;2023-02-18T08:22:35;100038.59;;;5.79;36.53
38880;BME280;25887;30.194;-97.880;2023-02-18T08:25:16;100034.91;;;5.73;35.96
38880;BME280;25887;30.194;-97.880;2023-02-18T08:27:42;100038.13;;;5.69;36.21
38880;BME280;25887;30.194;-97.880;2023-02-18T08:30:08;100028.63;;;5.66;35.89
38880;BME280;25887;30.194;-97.880;2023-02-18T08:33:04;100021.59;;;5.61;36.43
38880;BME280;25887;30.194;-97.880;2023-02-18T08:35:30;100029.91;;;5.56;36.47
38880;BME280;25887;30.194;-97.880;2023-02-18T08:37:55;100022.13;;;5.53;36.07
38880;BME280;25887;30.194;-97.880;2023-02-18T08:40:21;100016.84;;;5.50;36.39
38880;BME280;25887;30.194;-97.880;2023-02-18T08:42:47;100010.03;;;5.49;36.17
38880;BME280;25887;30.194;-97.880;2023-02-18T08:45:13;100007.34;;;5.46;36.06
38880;BME280;25887;30.194;-97.880;2023-02-18T08:47:39;100015.00;;;5.46;36.16
38880;BME280;25887;30.194;-97.880;2023-02-18T08:50:04;100006.47;;;5.46;36.17
38880;BME280;25887;30.194;-97.880;2023-02-18T08:52:30;100000.34;;;5.42;36.29
38880;BME280;25887;30.194;-97.880;2023-02-18T08:54:56;99992.50;;;5.38;36.52
38880;BME280;25887;30.194;-97.880;2023-02-18T08:57:22;99992.22;;;5.31;36.45
38880;BME280;25887;30.194;-97.880;2023-02-18T08:59:48;99976.69;;;5.27;36.70
38880;BME280;25887;30.194;-97.880;2023-02-18T09:02:32;99988.28;;;5.20;36.73
38880;BME280;25887;30.194;-97.880;2023-02-18T09:04:58;99993.97;;;5.15;36.45
38880;BME280;25887;30.194;-97.880;2023-02-18T09:07:23;99990.44;;;5.13;36.30
38880;BME280;25887;30.194;-97.880;2023-02-18T09:09:49;99987.03;;;5.12;36.42
38880;BME280;25887;30.194;-97.880;2023-02-18T09:12:15;99984.50;;;5.12;36.51
38880;BME280;25887;30.194;-97.880;2023-02-18T09:14:41;99983.63;;;5.12;36.81
38880;BME280;25887;30.194;-97.880;2023-02-18T09:17:07;99988.72;;;5.12;36.44
38880;BME280;25887;30.194;-97.880;2023-02-18T09:19:51;99997.22;;;5.12;36.85
38880;BME280;25887;30.194;-97.880;2023-02-18T09:22:17;99989.50;;;5.11;36.41
38880;BME280;25887;30.194;-97.880;2023-02-18T09:25:03;99999.72;;;5.11;36.55
38880;BME280;25887;30.194;-97.880;2023-02-18T09:27:29;99995.41;;;5.10;36.50
38880;BME280;25887;30.194;-97.880;2023-02-18T09:29:55;99995.34;;;5.08;37.04
38880;BME280;25887;30.194;-97.880;2023-02-18T09:32:21;100001.25;;;5.07;36.52
38880;BME280;25887;30.194;-97.880;2023-02-18T09:35:00;100000.22;;;5.03;37.18
38880;BME280;25887;30.194;-97.880;2023-02-18T09:37:26;99995.84;;;5.01;37.16
38880;BME280;25887;30.194;-97.880;2023-02-18T09:39:53;99991.50;;;4.98;36.58
38880;BME280;25887;30.194;-97.880;2023-02-18T09:42:19;99988.78;;;4.95;37.02
38880;BME280;25887;30.194;-97.880;2023-02-18T09:44:50;99978.28;;;4.89;36.49
38880;BME280;25887;30.194;-97.880;2023-02-18T09:49:43;99949.84;;;4.80;36.62
38880;BME280;25887;30.194;-97.880;2023-02-18T09:52:18;99952.34;;;4.79;37.15
38880;BME280;25887;30.194;-97.880;2023-02-18T09:54:45;99965.63;;;4.73;36.79
38880;BME280;25887;30.194;-97.880;2023-02-18T09:57:25;99972.31;;;4.71;36.69
38880;BME280;25887;30.194;-97.880;2023-02-18T10:00:05;99971.38;;;4.69;37.40
38880;BME280;25887;30.194;-97.880;2023-02-18T10:05:23;99950.59;;;4.60;37.37
38880;BME280;25887;30.194;-97.880;2023-02-18T10:07:50;99942.78;;;4.57;37.04
38880;BME280;25887;30.194;-97.880;2023-02-18T10:12:51;99941.91;;;4.56;37.11
38880;BME280;25887;30.194;-97.880;2023-02-18T10:15:21;99947.06;;;4.58;37.15
38880;BME280;25887;30.194;-97.880;2023-02-18T10:17:47;99940.41;;;4.60;37.54
38880;BME280;25887;30.194;-97.880;2023-02-18T10:20:19;99937.06;;;4.61;36.77
38880;BME280;25887;30.194;-97.880;2023-02-18T10:22:47;99935.44;;;4.63;36.79
38880;BME280;25887;30.194;-97.880;2023-02-18T10:25:16;99946.56;;;4.65;37.62
38880;BME280;25887;30.194;-97.880;2023-02-18T10:27:43;99929.69;;;4.67;37.61
38880;BME280;25887;30.194;-97.880;2023-02-18T10:33:26;99940.66;;;4.66;37.30
38880;BME280;25887;30.194;-97.880;2023-02-18T10:36:08;99937.19;;;4.64;37.04
38880;BME280;25887;30.194;-97.880;2023-02-18T10:46:58;99936.75;;;4.55;37.22
38880;BME280;25887;30.194;-97.880;2023-02-18T10:51:54;99930.78;;;4.54;37.54
38880;BME280;25887;30.194;-97.880;2023-02-18T10:54:25;99927.31;;;4.52;37.83
38880;BME280;25887;30.194;-97.880;2023-02-18T10:56:51;99940.03;;;4.52;37.84
38880;BME280;25887;30.194;-97.880;2023-02-18T10:59:24;99948.38;;;4.50;37.33
38880;BME280;25887;30.194;-97.880;2023-02-18T11:01:54;99949.97;;;4.47;37.19
38880;BME280;25887;30.194;-97.880;2023-02-18T11:04:21;99955.78;;;4.45;37.98
38880;BME280;25887;30.194;-97.880;2023-02-18T11:06:50;99953.13;;;4.43;37.21
38880;BME280;25887;30.194;-97.880;2023-02-18T11:09:28;99940.22;;;4.39;37.69
38880;BME280;25887;30.194;-97.880;2023-02-18T11:12:04;99926.31;;;4.32;37.70
38880;BME280;25887;30.194;-97.880;2023-02-18T11:15:32;99934.69;;;4.30;37.14
38880;BME280;25887;30.194;-97.880;2023-02-18T11:17:39;99955.81;;;4.29;37.97
38880;BME280;25887;30.194;-97.880;2023-02-18T11:22:43;99935.22;;;4.24;37.69
38880;BME280;25887;30.194;-97.880;2023-02-18T11:25:22;99935.09;;;4.21;37.44
38880;BME280;25887;30.194;-97.880;2023-02-18T11:27:55;99951.13;;;4.20;37.65
38880;BME280;25887;30.194;-97.880;2023-02-18T11:30:41;99946.03;;;4.20;38.02
38880;BME280;25887;30.194;-97.880;2023-02-18T11:33:09;99943.41;;;4.18;37.66
38880;BME280;25887;30.194;-97.880;2023-02-18T11:35:40;99951.84;;;4.17;38.21
38880;BME280;25887;30.194;-97.880;2023-02-18T11:40:54;99959.47;;;4.17;37.84
38880;BME280;25887;30.194;-97.880;2023-02-18T11:43:20;99951.91;;;4.19;37.53
38880;BME280;25887;30.194;-97.880;2023-02-18T11:45:46;99947.63;;;4.18;38.25
38880;BME280;25887;30.194;-97.880;2023-02-18T11:48:17;99945.75;;;4.14;37.50
38880;BME280;25887;30.194;-97.880;2023-02-18T11:50:43;99937.94;;;4.11;38.06
38880;BME280;25887;30.194;-97.880;2023-02-18T11:53:26;99946.22;;;4.07;37.71
38880;BME280;25887;30.194;-97.880;2023-02-18T11:55:54;99940.09;;;4.03;37.79
38880;BME280;25887;30.194;-97.880;2023-02-18T11:58:22;99940.97;;;4.04;37.74
38880;BME280;25887;30.194;-97.880;2023-02-18T12:00:49;99941.16;;;4.07;37.65
38880;BME280;25887;30.194;-97.880;2023-02-18T12:06:04;99947.31;;;4.12;38.19
38880;BME280;25887;30.194;-97.880;2023-02-18T12:08:37;99949.97;;;4.13;37.85
38880;BME280;25887;30.194;-97.880;2023-02-18T12:11:06;99948.28;;;4.14;37.76
38880;BME280;25887;30.194;-97.880;2023-02-18T12:13:49;99942.41;;;4.15;38.25
38880;BME280;25887;30.194;-97.880;2023-02-18T12:19:10;99945.97;;;4.18;38.43
38880;BME280;25887;30.194;-97.880;2023-02-18T12:29:32;99927.34;;;4.19;38.59
38880;BME280;25887;30.194;-97.880;2023-02-18T12:32:11;99931.56;;;4.19;37.89
38880;BME280;25887;30.194;-97.880;2023-02-18T12:50:38;99935.00;;;4.03;38.50
38880;BME280;25887;30.194;-97.880;2023-02-18T12:58:54;99952.00;;;4.04;38.73
38880;BME280;25887;30.194;-97.880;2023-02-18T13:01:30;99948.59;;;4.04;38.51
38880;BME280;25887;30.194;-97.880;2023-02-18T13:04:14;99951.94;;;4.03;38.31
38880;BME280;25887;30.194;-97.880;2023-02-18T13:10:00;99946.84;;;4.03;38.41
38880;BME280;25887;30.194;-97.880;2023-02-18T13:12:30;99955.22;;;4.00;38.83
38880;BME280;25887;30.194;-97.880;2023-02-18T13:15:10;99944.19;;;4.00;38.56
38880;BME280;25887;30.194;-97.880;2023-02-18T13:17:40;99957.75;;;4.00;38.96
38880;BME280;25887;30.194;-97.880;2023-02-18T13:22:39;99947.59;;;4.00;39.04
38880;BME280;25887;30.194;-97.880;2023-02-18T13:25:05;99956.09;;;4.01;38.82
38880;BME280;25887;30.194;-97.880;2023-02-18T13:30:30;99946.84;;;4.03;38.78
38880;BME280;25887;30.194;-97.880;2023-02-18T13:33:07;99945.28;;;4.05;39.09
38880;BME280;25887;30.194;-97.880;2023-02-18T13:35:57;99944.50;;;4.06;39.11
38880;BME280;25887;30.194;-97.880;2023-02-18T13:41:09;99934.31;;;4.06;38.92
38880;BME280;25887;30.194;-97.880;2023-02-18T13:43:35;99936.94;;;4.07;38.59
38880;BME280;25887;30.194;-97.880;2023-02-18T13:49:02;99945.66;;;4.12;38.75
38880;BME280;25887;30.194;-97.880;2023-02-18T13:59:33;99956.59;;;4.28;38.66
38880;BME280;25887;30.194;-97.880;2023-02-18T14:04:54;99970.09;;;4.43;38.67
38880;BME280;25887;30.194;-97.880;2023-02-18T14:20:49;99972.50;;;4.92;38.98
38880;BME280;25887;30.194;-97.880;2023-02-18T14:26:16;99964.03;;;5.11;39.09
38880;BME280;25887;30.194;-97.880;2023-02-18T14:28:51;99958.50;;;5.19;39.27
38880;BME280;25887;30.194;-97.880;2023-02-18T14:31:55;99951.38;;;5.30;39.33
38880;BME280;25887;30.194;-97.880;2023-02-18T14:37:05;99963.28;;;5.49;39.49
38880;BME280;25887;30.194;-97.880;2023-02-18T14:42:15;99976.13;;;5.70;39.42
38880;BME280;25887;30.194;-97.880;2023-02-18T14:49:51;99977.50;;;6.00;39.34
38880;BME280;25887;30.194;-97.880;2023-02-18T14:52:30;99979.66;;;6.10;39.49
38880;BME280;25887;30.194;-97.880;2023-02-18T14:54:59;99967.34;;;6.21;39.12
38880;BME280;25887;30.194;-97.880;2023-02-18T14:57:44;99967.88;;;6.33;39.38
38880;BME280;25887;30.194;-97.880;2023-02-18T15:00:39;99964.16;;;6.46;39.52
38880;BME280;25887;30.194;-97.880;2023-02-18T15:03:15;99962.91;;;6.57;39.41
38880;BME280;25887;30.194;-97.880;2023-02-18T15:05:42;99959.00;;;6.65;39.37
38880;BME280;25887;30.194;-97.880;2023-02-18T15:08:15;99959.38;;;6.75;39.50
38880;BME280;25887;30.194;-97.880;2023-02-18T15:10:42;99965.66;;;6.83;39.02
38880;BME280;25887;30.194;-97.880;2023-02-18T15:16:13;99953.44;;;6.96;39.21
38880;BME280;25887;30.194;-97.880;2023-02-18T15:18:41;99959.78;;;7.06;39.68
38880;BME280;25887;30.194;-97.880;2023-02-18T15:21:12;99964.31;;;7.13;39.10
38880;BME280;25887;30.194;-97.880;2023-02-18T15:23:40;99972.22;;;7.19;39.24
38880;BME280;25887;30.194;-97.880;2023-02-18T15:26:06;99979.19;;;7.23;39.05
38880;BME280;25887;30.194;-97.880;2023-02-18T15:28:38;99978.63;;;7.31;39.48
38880;BME280;25887;30.194;-97.880;2023-02-18T15:31:42;99984.16;;;7.41;39.37
38880;BME280;25887;30.194;-97.880;2023-02-18T15:36:50;99977.13;;;7.58;39.50
38880;BME280;25887;30.194;-97.880;2023-02-18T15:39:16;99980.84;;;7.66;39.40
38880;BME280;25887;30.194;-97.880;2023-02-18T15:42:13;99976.88;;;7.74;39.70
38880;BME280;25887;30.194;-97.880;2023-02-18T15:44:44;99988.25;;;7.82;39.48
38880;BME280;25887;30.194;-97.880;2023-02-18T15:47:10;99992.78;;;7.90;39.38
38880;BME280;25887;30.194;-97.880;2023-02-18T15:49:55;99991.31;;;7.96;39.39
38880;BME280;25887;30.194;-97.880;2023-02-18T15:52:24;100003.41;;;8.00;39.19
38880;BME280;25887;30.194;-97.880;2023-02-18T15:55:12;100001.97;;;8.08;38.65